Terminal Aerodrome Forecast
Issued by NWS Binghamton, NY

Home | Current Version | Previous Version | Text Only | Print | Product List | Glossary On
Versions: 1 2 3 4 5 6 7 8 9 10 11 12 13 14 15 16 17 18 19 20 21
000
FTUS41 KBGM 210300 AAA
TAFSYR
TAF AMD
KSYR 210303Z 2103/2124 16005KT P6SM -SHRA SCT035 OVC060
      TEMPO 2103/2107 4SM -SHRA SCT025 OVC035
     FM210700 17005KT 6SM -SHRA OVC025
      TEMPO 2109/2113 4SM -SHRA
     FM211700 04004KT P6SM OVC035=

USA.gov is the U.S. government's official web portal to all federal, state and local government web resources and services.